Time;durP1;ratioP1;P1;durP2;ratioP2;P2;SDS_P1;SDS_P2;PMS_P1;PMS_P2;Temp;Humidity;BMP_temperature;BMP_pressure;BME280_temperature;BME280_humidity;BME280_pressure;Samples;Min_cycle;Max_cycle;Signal;HPM_P1;HPM_P2
2022/03/10 00:00:11;;;;;;;15.77;10.23;;;2.50;99.90;;;;;;4935074;28;20527;-58
2022/03/10 00:02:37;;;;;;;19.80;10.88;;;;;;;;;;4934242;29;20051;-64
2022/03/10 00:05:03;;;;;;;19.30;10.93;;;3.10;99.90;;;;;;4952178;28;20529;-63
2022/03/10 00:07:29;;;;;;;15.18;9.85;;;3.10;99.90;;;;;;4952318;29;20086;-62
2022/03/10 00:09:55;;;;;;;16.45;10.25;;;3.10;99.90;;;;;;4952111;29;20043;-62
2022/03/10 00:12:20;;;;;;;15.38;10.05;;;3.30;99.90;;;;;;4952116;29;20043;-62
2022/03/10 00:14:46;;;;;;;18.08;10.55;;;;;;;;;;4952143;28;20043;-62
2022/03/10 00:17:12;;;;;;;16.33;9.43;;;2.90;99.90;;;;;;4952218;29;20046;-62
2022/03/10 00:19:38;;;;;;;15.50;9.77;;;2.90;99.90;;;;;;4952265;29;20039;-64
2022/03/10 00:22:04;;;;;;;17.25;10.20;;;3.00;99.90;;;;;;4935052;29;20402;-64
2022/03/10 00:24:29;;;;;;;15.07;10.07;;;3.00;99.90;;;;;;4935229;28;20093;-64
2022/03/10 00:26:55;;;;;;;19.13;10.45;;;3.00;99.90;;;;;;4952251;29;20043;-64
2022/03/10 00:29:21;;;;;;;16.42;10.63;;;;;;;;;;4952083;28;20114;-64
2022/03/10 00:31:47;;;;;;;22.58;12.00;;;2.70;99.90;;;;;;4952042;28;20463;-64
2022/03/10 00:34:14;;;;;;;16.25;11.38;;;2.60;99.90;;;;;;4951999;28;20047;-60
2022/03/10 00:36:39;;;;;;;18.83;12.23;;;2.30;99.90;;;;;;4951910;29;20046;-58
2022/03/10 00:39:05;;;;;;;22.98;12.15;;;2.20;99.90;;;;;;4952020;29;20062;-58
2022/03/10 00:41:31;;;;;;;20.58;11.82;;;1.80;99.90;;;;;;4951911;28;20173;-60
2022/03/10 00:43:57;;;;;;;17.88;10.65;;;1.70;99.90;;;;;;4951678;28;20118;-60
2022/03/10 00:46:22;;;;;;;16.83;9.90;;;1.50;99.90;;;;;;5050283;28;20037;-58
2022/03/10 00:48:48;;;;;;;20.95;10.68;;;1.60;99.90;;;;;;5052605;28;20142;-60
2022/03/10 00:51:13;;;;;;;16.45;10.10;;;1.60;99.90;;;;;;5052870;28;20044;-58
2022/03/10 00:53:39;;;;;;;16.83;9.57;;;1.80;99.90;;;;;;5034641;28;20045;-58
2022/03/10 00:56:05;;;;;;;17.77;10.30;;;2.30;99.90;;;;;;5052588;28;20499;-58
2022/03/10 00:58:30;;;;;;;15.55;10.30;;;2.30;99.90;;;;;;5034570;28;20045;-58
2022/03/10 01:00:56;;;;;;;17.75;10.45;;;;;;;;;;5034504;28;20051;-58
2022/03/10 01:03:23;;;;;;;16.55;10.35;;;;;;;;;;5055874;28;20048;-62
2022/03/10 01:05:49;;;;;;;14.02;8.90;;;2.50;99.90;;;;;;5056404;28;20055;-64
2022/03/10 01:08:14;;;;;;;16.42;9.70;;;2.70;99.90;;;;;;5055174;28;20051;-64
2022/03/10 01:10:40;;;;;;;17.52;9.35;;;2.90;99.90;;;;;;5055951;28;20479;-64
2022/03/10 01:13:13;;;;;;;14.23;9.02;;;2.80;99.90;;;;;;5055994;28;20037;-64
2022/03/10 01:15:39;;;;;;;16.38;10.15;;;2.80;99.90;;;;;;5054949;28;20083;-64
2022/03/10 01:18:04;;;;;;;18.80;10.85;;;3.10;99.90;;;;;;5056155;28;20399;-64
2022/03/10 01:20:30;;;;;;;18.05;10.80;;;3.20;99.90;;;;;;5038168;28;20118;-64
2022/03/10 01:22:56;;;;;;;19.45;11.45;;;3.10;99.90;;;;;;5038019;28;20068;-64
2022/03/10 01:25:21;;;;;;;14.90;9.05;;;3.10;99.90;;;;;;5055889;28;20083;-64
2022/03/10 01:27:47;;;;;;;17.52;8.95;;;3.30;99.90;;;;;;5055832;28;20068;-64
2022/03/10 01:30:13;;;;;;;17.40;10.40;;;3.10;99.90;;;;;;5055699;28;20075;-64
2022/03/10 01:32:39;;;;;;;17.45;9.52;;;3.10;99.90;;;;;;5037727;28;20057;-60
2022/03/10 01:35:06;;;;;;;19.63;9.52;;;3.10;99.90;;;;;;5055382;28;20049;-60
2022/03/10 01:37:37;;;;;;;16.23;10.13;;;3.10;99.90;;;;;;5055553;28;20037;-60
2022/03/10 01:40:11;;;;;;;16.95;10.20;;;3.10;99.90;;;;;;5037423;28;20052;-60
2022/03/10 01:42:38;;;;;;;16.73;10.15;;;3.10;99.90;;;;;;5037351;28;20049;-60
2022/03/10 01:45:06;;;;;;;16.02;8.80;;;3.20;99.90;;;;;;5011084;28;20485;-61
2022/03/10 01:47:31;;;;;;;14.82;9.70;;;3.20;99.90;;;;;;4954248;28;20047;-60
2022/03/10 01:49:57;;;;;;;18.98;11.23;;;3.20;99.90;;;;;;4954012;28;20054;-60
2022/03/10 01:52:23;;;;;;;17.90;10.18;;;3.10;99.90;;;;;;4954179;28;20073;-60
2022/03/10 01:54:49;;;;;;;16.50;9.85;;;3.10;99.90;;;;;;4953813;28;20081;-61
2022/03/10 01:57:15;;;;;;;18.67;10.02;;;3.10;99.90;;;;;;4936896;28;20054;-60
2022/03/10 01:59:41;;;;;;;14.68;10.52;;;3.20;99.90;;;;;;4953927;29;20122;-60
2022/03/10 02:02:08;;;;;;;14.60;10.13;;;3.20;99.90;;;;;;4953938;28;20126;-59
2022/03/10 02:04:33;;;;;;;18.70;11.00;;;3.00;99.90;;;;;;4953898;28;20043;-60
2022/03/10 02:07:03;;;;;;;18.00;10.82;;;2.90;99.90;;;;;;4953807;28;20042;-59
2022/03/10 02:12:13;;;;;;;16.52;9.77;;;3.10;99.90;;;;;;4972396;28;20058;-60
2022/03/10 02:17:25;;;;;;;16.70;9.98;;;3.10;99.90;;;;;;4972941;28;20051;-60
2022/03/10 02:19:54;;;;;;;22.77;10.75;;;3.10;99.90;;;;;;4955553;28;20042;-60
2022/03/10 02:22:21;;;;;;;17.00;9.73;;;3.20;99.90;;;;;;4972929;28;20082;-59
2022/03/10 02:24:48;;;;;;;16.25;10.32;;;3.20;99.90;;;;;;4972695;28;20039;-60
2022/03/10 02:27:25;;;;;;;18.73;10.07;;;3.50;99.90;;;;;;4955517;28;20050;-59
2022/03/10 02:29:57;;;;;;;14.48;9.95;;;3.30;99.90;;;;;;4972732;28;20066;-61
2022/03/10 02:32:23;;;;;;;14.27;9.60;;;3.30;99.90;;;;;;4955128;28;20094;-60
2022/03/10 02:34:49;;;;;;;20.48;11.13;;;3.20;99.90;;;;;;4972793;28;20067;-60
2022/03/10 02:37:16;;;;;;;19.98;12.05;;;3.20;99.90;;;;;;4972533;28;20485;-60
2022/03/10 02:39:43;;;;;;;18.13;10.95;;;;;;;;;;4955379;28;20039;-60
2022/03/10 02:42:09;;;;;;;17.33;10.60;;;3.20;99.90;;;;;;4972707;28;20420;-60
2022/03/10 02:44:47;;;;;;;18.48;10.88;;;3.40;99.90;;;;;;4968067;28;20074;-60
2022/03/10 02:47:13;;;;;;;20.80;11.82;;;3.30;99.90;;;;;;4953191;29;20050;-60
2022/03/10 02:49:40;;;;;;;18.48;11.07;;;3.50;99.90;;;;;;4953235;29;20035;-61
2022/03/10 02:52:07;;;;;;;19.05;10.65;;;;;;;;;;4953162;28;20043;-60
2022/03/10 02:54:33;;;;;;;17.08;10.45;;;;;;;;;;4969192;28;20031;-61
2022/03/10 02:56:59;;;;;;;16.73;10.43;;;;;;;;;;4965690;28;20028;-63
2022/03/10 02:59:25;;;;;;;17.38;11.27;;;3.80;99.90;;;;;;4966830;28;20079;-60
2022/03/10 03:01:51;;;;;;;18.20;11.18;;;3.60;99.90;;;;;;4971523;28;20407;-58
2022/03/10 03:04:16;;;;;;;18.40;11.52;;;3.60;99.90;;;;;;4972326;28;20058;-59
2022/03/10 03:06:42;;;;;;;19.10;10.82;;;3.70;99.90;;;;;;4972364;28;20114;-58
2022/03/10 03:09:07;;;;;;;19.70;12.13;;;3.60;99.90;;;;;;4972213;28;20049;-58
2022/03/10 03:11:33;;;;;;;15.50;10.20;;;3.60;99.90;;;;;;4954484;28;20504;-60
2022/03/10 03:13:59;;;;;;;16.55;9.75;;;3.50;99.90;;;;;;4954745;28;20053;-61
2022/03/10 03:16:26;;;;;;;17.88;10.27;;;;;;;;;;4961020;28;20031;-60
2022/03/10 03:18:52;;;;;;;17.83;10.55;;;3.50;99.90;;;;;;4971591;28;20074;-62
2022/03/10 03:21:18;;;;;;;18.65;11.15;;;3.40;99.90;;;;;;4972018;28;20093;-60
2022/03/10 03:23:44;;;;;;;18.20;11.05;;;3.60;99.90;;;;;;4954022;28;20054;-60
2022/03/10 03:26:09;;;;;;;18.08;11.20;;;3.70;99.90;;;;;;4970354;28;20049;-60
2022/03/10 03:28:35;;;;;;;19.85;11.50;;;3.60;99.90;;;;;;4971798;28;20071;-60
2022/03/10 03:31:03;;;;;;;20.30;11.05;;;;;;;;;;4971560;28;20497;-60
2022/03/10 03:33:30;;;;;;;20.73;11.52;;;3.60;99.90;;;;;;4972071;28;20423;-62
2022/03/10 03:35:57;;;;;;;18.90;10.57;;;3.60;99.90;;;;;;4971846;28;20035;-62
2022/03/10 03:38:22;;;;;;;17.10;10.40;;;3.50;99.90;;;;;;4971809;28;20035;-62
2022/03/10 03:40:48;;;;;;;20.13;11.48;;;3.40;99.90;;;;;;4971782;28;20141;-62
2022/03/10 03:43:14;;;;;;;21.20;11.70;;;3.40;99.90;;;;;;4971550;28;20047;-62
2022/03/10 03:45:39;;;;;;;20.52;11.15;;;3.30;99.90;;;;;;4958351;28;20051;-62
2022/03/10 03:48:05;;;;;;;17.30;10.80;;;3.30;99.90;;;;;;4952542;28;20044;-62
2022/03/10 03:50:30;;;;;;;16.90;11.15;;;3.30;99.90;;;;;;4952270;28;20114;-59
2022/03/10 03:52:56;;;;;;;20.77;12.10;;;3.30;99.90;;;;;;4952414;28;20120;-61
2022/03/10 03:55:21;;;;;;;17.15;11.27;;;3.20;99.90;;;;;;4945333;28;20545;-60
2022/03/10 03:57:47;;;;;;;21.80;12.40;;;3.20;99.90;;;;;;4933098;29;20061;-61
2022/03/10 04:00:15;;;;;;;21.73;12.60;;;3.20;99.90;;;;;;4915936;29;20050;-60
2022/03/10 04:02:41;;;;;;;20.88;12.40;;;3.10;99.90;;;;;;4915957;29;20052;-61
2022/03/10 04:05:08;;;;;;;18.70;11.10;;;3.00;99.90;;;;;;4933155;28;20410;-60
2022/03/10 04:07:34;;;;;;;25.70;11.48;;;3.10;99.90;;;;;;4933012;29;20051;-60
2022/03/10 04:10:00;;;;;;;20.23;11.77;;;3.00;99.90;;;;;;4933206;28;20050;-58
2022/03/10 04:12:26;;;;;;;21.00;11.82;;;3.10;99.90;;;;;;4932961;29;20126;-58
2022/03/10 04:14:51;;;;;;;20.75;11.25;;;3.20;99.90;;;;;;4915879;29;20047;-60
2022/03/10 04:17:17;;;;;;;18.88;11.98;;;3.10;99.90;;;;;;4915811;29;20043;-58
2022/03/10 04:19:42;;;;;;;16.95;11.27;;;3.20;99.90;;;;;;4932996;29;20043;-58
2022/03/10 04:22:08;;;;;;;23.20;14.60;;;3.00;99.90;;;;;;4932993;29;20490;-58
2022/03/10 04:24:34;;;;;;;21.92;10.98;;;3.10;99.90;;;;;;4933047;29;20512;-58
2022/03/10 04:27:00;;;;;;;17.10;10.27;;;3.30;99.90;;;;;;4932812;29;20048;-58
2022/03/10 04:29:25;;;;;;;21.88;11.70;;;3.20;99.90;;;;;;4932819;29;20094;-60
2022/03/10 04:31:51;;;;;;;20.42;11.10;;;3.20;99.90;;;;;;4932572;29;20083;-58
2022/03/10 04:34:17;;;;;;;20.98;11.57;;;3.10;99.90;;;;;;4932660;29;20055;-60
2022/03/10 04:36:42;;;;;;;20.15;11.63;;;3.20;99.90;;;;;;4933645;29;20048;-57
2022/03/10 04:39:08;;;;;;;19.05;12.02;;;3.10;99.90;;;;;;4940038;28;20141;-60
2022/03/10 04:41:36;;;;;;;22.02;11.80;;;3.10;99.90;;;;;;4940739;28;20055;-58
2022/03/10 04:44:02;;;;;;;19.73;11.85;;;3.20;99.90;;;;;;4973900;28;20119;-59
2022/03/10 04:46:28;;;;;;;20.33;11.77;;;3.10;99.90;;;;;;4955162;28;20047;-58
2022/03/10 04:48:54;;;;;;;18.02;11.75;;;3.10;99.90;;;;;;4955194;28;20551;-58
2022/03/10 04:51:20;;;;;;;24.27;12.13;;;3.10;99.90;;;;;;4937824;28;20397;-57
2022/03/10 04:53:46;;;;;;;20.35;12.15;;;3.20;99.90;;;;;;4937599;28;20051;-62
2022/03/10 04:56:12;;;;;;;23.10;13.00;;;;;;;;;;4955035;28;20051;-63
2022/03/10 04:58:38;;;;;;;22.35;11.63;;;3.10;99.90;;;;;;4955139;29;20036;-63
2022/03/10 05:01:03;;;;;;;23.70;12.73;;;3.10;99.90;;;;;;4954944;28;20097;-63
2022/03/10 05:03:31;;;;;;;22.52;11.75;;;2.90;99.90;;;;;;4947360;28;20043;-63
2022/03/10 05:05:56;;;;;;;20.80;12.25;;;;;;;;;;4955715;28;20050;-63
2022/03/10 05:08:22;;;;;;;21.58;11.65;;;3.10;99.90;;;;;;4955622;28;20141;-64
2022/03/10 05:10:48;;;;;;;21.05;13.02;;;3.00;99.90;;;;;;4970312;28;20035;-64
2022/03/10 05:13:13;;;;;;;21.95;12.63;;;3.00;99.90;;;;;;4972770;28;20042;-63
2022/03/10 05:15:39;;;;;;;24.13;12.10;;;;;;;;;;4972567;28;20501;-63
2022/03/10 05:18:05;;;;;;;19.60;11.95;;;3.10;99.90;;;;;;4955407;28;20122;-63
2022/03/10 05:20:31;;;;;;;18.67;11.27;;;3.10;99.90;;;;;;4967594;28;20117;-63
2022/03/10 05:22:58;;;;;;;18.30;11.95;;;;;;;;;;4972675;28;20103;-63
2022/03/10 05:25:39;;;;;;;21.40;13.20;;;3.00;99.90;;;;;;4955226;28;20057;-64
2022/03/10 05:28:06;;;;;;;21.35;11.73;;;;;;;;;;4966086;28;20157;-64
2022/03/10 05:30:33;;;;;;;21.25;12.20;;;3.10;99.90;;;;;;4939446;28;20059;-62
2022/03/10 05:32:59;;;;;;;24.25;12.25;;;;;;;;;;4961410;28;20504;-61
2022/03/10 05:35:27;;;;;;;21.55;12.57;;;2.90;99.90;;;;;;4950723;28;20038;-60
2022/03/10 05:37:53;;;;;;;19.13;11.68;;;;;;;;;;4951220;28;20035;-63
2022/03/10 05:40:20;;;;;;;21.80;11.40;;;;;;;;;;4952779;28;20096;-63
2022/03/10 05:42:47;;;;;;;19.88;11.65;;;2.80;99.90;;;;;;4952208;28;20038;-63
2022/03/10 05:45:15;;;;;;;21.98;12.85;;;2.80;99.90;;;;;;4947897;28;20046;-63
2022/03/10 05:47:41;;;;;;;19.45;11.50;;;2.70;99.90;;;;;;4968425;28;20054;-63
2022/03/10 05:50:08;;;;;;;22.80;12.30;;;2.80;99.90;;;;;;4972314;28;20100;-63
2022/03/10 05:52:34;;;;;;;20.65;11.93;;;2.70;99.90;;;;;;4954772;28;20065;-63
2022/03/10 05:55:00;;;;;;;19.98;11.57;;;;;;;;;;4953551;28;20035;-63
2022/03/10 05:57:27;;;;;;;18.92;10.82;;;;;;;;;;4928442;28;20048;-63
2022/03/10 05:59:52;;;;;;;22.42;12.45;;;2.80;99.90;;;;;;4936796;28;20127;-62
2022/03/10 06:02:18;;;;;;;22.13;11.98;;;2.90;99.90;;;;;;4947353;28;20126;-60
2022/03/10 06:04:44;;;;;;;22.70;12.73;;;2.90;99.90;;;;;;4953843;29;20055;-60
2022/03/10 06:07:10;;;;;;;19.88;10.88;;;2.90;99.90;;;;;;4953946;29;20046;-59
2022/03/10 06:09:36;;;;;;;19.00;10.98;;;2.90;99.90;;;;;;4968992;28;20114;-59
2022/03/10 06:12:02;;;;;;;22.05;12.43;;;3.00;99.90;;;;;;4972259;28;20122;-58
2022/03/10 06:14:28;;;;;;;22.73;11.93;;;2.90;99.90;;;;;;4971883;28;20035;-59
2022/03/10 06:16:54;;;;;;;20.63;11.40;;;3.00;99.90;;;;;;4965555;28;20047;-62
2022/03/10 06:19:20;;;;;;;20.15;11.18;;;2.70;99.90;;;;;;4947621;29;20043;-63
2022/03/10 06:21:46;;;;;;;18.80;11.60;;;2.90;99.90;;;;;;4948899;28;20424;-63
2022/03/10 06:24:12;;;;;;;20.83;11.63;;;2.90;99.90;;;;;;4917906;29;20043;-62
2022/03/10 06:26:38;;;;;;;21.00;11.45;;;3.00;99.90;;;;;;4963845;28;20046;-63
2022/03/10 06:29:04;;;;;;;20.35;10.85;;;3.30;99.90;;;;;;4963978;28;20050;-63
2022/03/10 06:31:30;;;;;;;23.00;12.68;;;3.10;99.90;;;;;;4926320;29;20514;-62
2022/03/10 06:33:55;;;;;;;17.85;11.00;;;3.10;99.90;;;;;;4925986;29;20134;-63
2022/03/10 06:36:22;;;;;;;20.77;11.52;;;;;;;;;;4917821;29;20055;-63
2022/03/10 06:38:47;;;;;;;19.92;11.27;;;3.10;99.90;;;;;;4942582;28;20043;-62
2022/03/10 06:41:13;;;;;;;29.25;11.80;;;;;;;;;;4951474;28;20097;-62
2022/03/10 06:43:39;;;;;;;19.55;11.52;;;3.30;99.90;;;;;;4935057;28;20090;-62
2022/03/10 06:46:04;;;;;;;20.00;10.75;;;3.40;99.90;;;;;;4932767;28;20551;-62
2022/03/10 06:48:30;;;;;;;19.52;10.98;;;3.50;99.90;;;;;;4950218;29;20039;-62
2022/03/10 06:50:55;;;;;;;22.08;11.18;;;3.60;99.90;;;;;;4952137;28;20400;-62
2022/03/10 06:53:21;;;;;;;19.58;11.00;;;3.60;99.90;;;;;;4938572;28;20592;-62
2022/03/10 06:55:47;;;;;;;18.55;11.85;;;;;;;;;;4937756;29;20398;-61
2022/03/10 06:58:13;;;;;;;19.05;12.15;;;3.70;99.90;;;;;;4922369;29;20048;-62
2022/03/10 07:00:39;;;;;;;19.05;10.68;;;;;;;;;;4930659;29;20602;-58
2022/03/10 07:03:05;;;;;;;18.20;11.00;;;;;;;;;;4942835;28;20039;-58
2022/03/10 07:05:30;;;;;;;16.73;11.20;;;4.00;99.90;;;;;;4950753;28;20075;-58
2022/03/10 07:07:56;;;;;;;18.75;11.95;;;4.00;99.90;;;;;;4941397;28;20071;-58
2022/03/10 07:10:22;;;;;;;21.67;11.70;;;;;;;;;;4950655;28;20047;-58
2022/03/10 07:12:51;;;;;;;19.85;11.55;;;;;;;;;;4949163;28;20063;-58
2022/03/10 07:15:17;;;;;;;20.70;11.70;;;4.50;99.90;;;;;;4947794;28;20039;-58
2022/03/10 07:17:42;;;;;;;21.27;12.32;;;4.60;99.90;;;;;;4951641;28;20031;-59
2022/03/10 07:20:09;;;;;;;19.15;11.50;;;4.80;99.90;;;;;;4952780;28;20089;-58
2022/03/10 07:22:35;;;;;;;21.20;12.30;;;5.30;99.90;;;;;;4952664;28;20081;-59
2022/03/10 07:25:01;;;;;;;18.55;11.85;;;5.90;99.90;;;;;;4952549;28;20054;-58
2022/03/10 07:27:27;;;;;;;19.95;11.77;;;;;;;;;;4965591;28;20053;-60
2022/03/10 07:29:52;;;;;;;21.20;13.07;;;6.90;99.90;;;;;;4922826;29;20052;-59
2022/03/10 07:32:18;;;;;;;19.35;12.18;;;7.00;99.90;;;;;;4946529;28;20416;-60
2022/03/10 07:34:47;;;;;;;19.02;11.65;;;;;;;;;;4944730;29;20553;-59
2022/03/10 07:37:14;;;;;;;20.73;11.05;;;7.40;99.90;;;;;;4933137;28;20050;-59
2022/03/10 07:39:40;;;;;;;21.88;12.07;;;7.60;99.90;;;;;;4933311;29;20612;-60
2022/03/10 07:42:06;;;;;;;20.27;12.45;;;8.10;99.90;;;;;;4933601;29;20079;-58
2022/03/10 07:44:31;;;;;;;19.67;12.05;;;8.40;99.90;;;;;;4938505;29;20093;-58
2022/03/10 07:46:57;;;;;;;17.23;10.85;;;8.90;99.00;;;;;;4952540;28;20042;-60
2022/03/10 07:49:23;;;;;;;18.50;9.93;;;9.50;98.20;;;;;;4935358;28;20063;-59
2022/03/10 07:51:48;;;;;;;21.92;11.45;;;10.10;97.20;;;;;;4952120;28;20062;-60
2022/03/10 07:54:14;;;;;;;19.13;11.85;;;10.40;95.70;;;;;;4952328;28;20489;-60
2022/03/10 07:56:40;;;;;;;22.05;12.73;;;10.70;93.90;;;;;;4952267;28;20044;-59
2022/03/10 07:59:05;;;;;;;20.90;12.40;;;10.50;93.30;;;;;;4935087;28;20059;-59
2022/03/10 08:01:31;;;;;;;23.23;12.27;;;9.90;93.00;;;;;;4952274;28;20035;-61
2022/03/10 08:03:57;;;;;;;21.35;11.68;;;10.20;93.50;;;;;;4935082;28;20043;-59
2022/03/10 08:06:25;;;;;;;21.23;12.60;;;10.30;93.60;;;;;;4952236;28;20125;-60
2022/03/10 08:08:51;;;;;;;18.23;12.40;;;10.30;93.20;;;;;;4952064;29;20405;-59
2022/03/10 08:11:17;;;;;;;19.15;11.88;;;10.60;92.40;;;;;;4953625;28;20036;-60
2022/03/10 08:13:42;;;;;;;18.38;11.88;;;10.60;92.60;;;;;;4938345;28;20044;-59
2022/03/10 08:16:08;;;;;;;22.50;12.43;;;10.50;92.30;;;;;;4955655;28;20408;-60
2022/03/10 08:18:33;;;;;;;18.25;11.93;;;11.30;92.20;;;;;;4955734;28;20043;-60
2022/03/10 08:20:59;;;;;;;19.40;11.73;;;11.40;91.40;;;;;;4955455;28;20050;-60
2022/03/10 08:23:26;;;;;;;19.38;11.38;;;11.90;91.50;;;;;;4955494;28;20507;-61
2022/03/10 08:25:52;;;;;;;18.45;11.38;;;12.30;91.00;;;;;;4955201;29;20126;-60
2022/03/10 08:28:18;;;;;;;18.40;12.63;;;12.70;90.80;;;;;;4955527;29;20122;-59
2022/03/10 08:30:44;;;;;;;20.83;11.95;;;13.20;89.60;;;;;;4955130;28;20047;-61
2022/03/10 08:33:09;;;;;;;20.35;12.57;;;13.90;87.80;;;;;;4955272;28;20113;-59
2022/03/10 08:35:35;;;;;;;23.20;13.13;;;14.20;87.50;;;;;;4955115;28;20039;-59
2022/03/10 08:38:01;;;;;;;17.77;12.68;;;14.00;85.30;;;;;;4955162;28;20039;-60
2022/03/10 08:40:28;;;;;;;18.27;12.20;;;14.40;84.00;;;;;;4955107;28;20413;-60
2022/03/10 08:42:54;;;;;;;18.67;12.65;;;14.70;83.20;;;;;;4937474;29;20134;-60
2022/03/10 08:45:22;;;;;;;17.80;12.23;;;15.40;81.80;;;;;;4952516;29;20049;-61
2022/03/10 08:47:47;;;;;;;18.67;13.00;;;15.90;81.10;;;;;;4948351;28;20051;-60
2022/03/10 08:50:13;;;;;;;21.52;13.60;;;16.20;80.10;;;;;;4947383;28;20095;-59
2022/03/10 08:52:39;;;;;;;15.93;11.90;;;16.90;78.30;;;;;;4954426;29;20058;-60
2022/03/10 08:55:06;;;;;;;17.13;11.95;;;17.20;77.80;;;;;;4949980;28;20046;-61
2022/03/10 08:57:33;;;;;;;20.23;13.40;;;17.10;75.40;;;;;;4953819;28;20493;-60
2022/03/10 08:59:58;;;;;;;18.95;12.82;;;17.10;77.30;;;;;;4954085;28;20035;-62
2022/03/10 09:02:24;;;;;;;19.42;13.48;;;17.20;75.40;;;;;;4953582;28;20051;-62
2022/03/10 09:04:50;;;;;;;18.73;12.60;;;17.20;75.70;;;;;;4939516;28;20074;-61
2022/03/10 09:07:16;;;;;;;18.60;11.82;;;17.40;75.20;;;;;;4939325;28;20409;-62
2022/03/10 09:09:42;;;;;;;20.60;13.65;;;17.30;74.90;;;;;;4960317;28;20088;-63
2022/03/10 09:12:08;;;;;;;17.67;11.90;;;16.90;74.70;;;;;;4940692;28;20521;-62
2022/03/10 09:14:34;;;;;;;20.65;13.13;;;17.70;73.90;;;;;;4954059;28;20157;-62
2022/03/10 09:17:00;;;;;;;21.08;13.43;;;18.00;73.40;;;;;;4992940;28;20082;-62
2022/03/10 09:19:25;;;;;;;18.55;13.15;;;18.80;73.50;;;;;;5036783;28;20045;-61
2022/03/10 09:21:51;;;;;;;18.23;12.68;;;19.20;72.40;;;;;;5035928;28;20111;-60
2022/03/10 09:24:17;;;;;;;17.75;12.65;;;19.70;70.60;;;;;;5035912;28;20115;-61
2022/03/10 09:26:43;;;;;;;16.15;12.80;;;19.60;70.00;;;;;;5036459;28;20124;-61
2022/03/10 09:29:09;;;;;;;16.40;12.98;;;20.00;69.30;;;;;;5036207;28;20041;-61
2022/03/10 09:31:34;;;;;;;18.98;12.77;;;19.90;68.70;;;;;;5054109;28;20068;-60
2022/03/10 09:34:00;;;;;;;21.98;11.85;;;20.10;68.20;;;;;;5053934;28;20040;-62
2022/03/10 09:36:26;;;;;;;20.85;12.75;;;20.30;68.30;;;;;;5036245;28;20479;-62
2022/03/10 09:38:52;;;;;;;24.55;13.32;;;20.60;68.10;;;;;;5054105;28;20063;-62
2022/03/10 09:41:18;;;;;;;22.63;14.45;;;20.50;67.60;;;;;;5016929;28;20039;-63
2022/03/10 09:43:45;;;;;;;17.38;12.00;;;20.80;68.10;;;;;;4972364;28;20077;-62
2022/03/10 09:46:11;;;;;;;21.35;13.55;;;21.00;66.50;;;;;;4951558;28;20142;-62
2022/03/10 09:48:38;;;;;;;18.70;14.05;;;20.90;66.50;;;;;;4954763;28;20453;-62
2022/03/10 09:51:03;;;;;;;21.65;13.70;;;21.50;66.30;;;;;;4972136;28;20093;-62
2022/03/10 09:53:31;;;;;;;56.13;16.38;;;21.60;65.50;;;;;;5042306;28;20465;-61
2022/03/10 09:55:58;;;;;;;19.05;12.93;;;21.70;64.60;;;;;;5019536;28;20097;-62
2022/03/10 09:58:23;;;;;;;19.15;13.00;;;22.30;64.60;;;;;;4952675;28;20051;-62
2022/03/10 10:00:49;;;;;;;19.73;12.85;;;22.50;64.00;;;;;;4954407;28;20038;-62
2022/03/10 10:03:15;;;;;;;18.55;12.50;;;23.30;64.10;;;;;;4971854;28;20043;-62
2022/03/10 10:05:41;;;;;;;20.10;13.02;;;24.20;63.60;;;;;;5004220;28;20044;-62
2022/03/10 10:08:09;;;;;;;18.08;12.45;;;24.30;63.60;;;;;;5053674;28;20360;-63
2022/03/10 10:10:41;;;;;;;17.48;12.57;;;24.50;59.40;;;;;;4943265;28;20039;-63
2022/03/10 10:13:07;;;;;;;21.55;13.07;;;24.70;60.90;;;;;;4953014;28;20523;-63
2022/03/10 10:15:38;;;;;;;16.55;12.63;;;24.70;60.50;;;;;;4954563;28;20191;-62
2022/03/10 10:18:05;;;;;;;16.85;12.65;;;24.50;60.60;;;;;;4953766;28;20043;-63
2022/03/10 10:20:36;;;;;;;20.05;12.77;;;24.90;60.80;;;;;;4971510;28;20514;-63
2022/03/10 10:23:22;;;;;;;18.45;12.98;;;25.20;60.60;;;;;;4954295;28;20132;-64
2022/03/10 10:25:56;;;;;;;17.60;13.15;;;25.50;58.40;;;;;;4953748;28;20053;-63
2022/03/10 10:28:31;;;;;;;17.83;12.95;;;25.30;57.90;;;;;;4971288;28;20349;-65
2022/03/10 10:31:17;;;;;;;20.58;13.40;;;25.10;58.20;;;;;;4953820;28;20046;-64
2022/03/10 10:34:02;;;;;;;21.00;15.75;;;24.90;57.40;;;;;;4963592;28;20062;-63
2022/03/10 10:36:33;;;;;;;21.83;14.38;;;24.60;58.20;;;;;;4958438;28;20082;-64
2022/03/10 10:39:09;;;;;;;18.98;14.43;;;24.50;60.40;;;;;;4932714;28;20043;-64
2022/03/10 10:41:36;;;;;;;21.55;14.45;;;24.10;61.30;;;;;;4940834;28;20493;-63
2022/03/10 10:44:08;;;;;;;16.80;11.98;;;23.80;60.40;;;;;;4936823;28;20563;-64
2022/03/10 10:46:35;;;;;;;23.23;13.23;;;23.50;61.10;;;;;;4934271;29;20130;-64
2022/03/10 10:49:11;;;;;;;20.15;14.30;;;22.60;61.60;;;;;;4912532;28;20102;-64
2022/03/10 10:51:43;;;;;;;18.73;12.85;;;22.00;61.30;;;;;;4946471;28;20121;-64
2022/03/10 10:54:22;;;;;;;19.70;13.13;;;21.70;61.70;;;;;;4936471;28;20046;-63
2022/03/10 10:57:06;;;;;;;25.27;15.07;;;20.60;63.00;;;;;;4939236;28;20039;-62
2022/03/10 10:59:37;;;;;;;27.23;15.57;;;19.50;66.50;;;;;;4955766;28;20045;-63
2022/03/10 11:02:09;;;;;;;22.65;14.50;;;18.90;65.90;;;;;;4962413;28;20528;-63
2022/03/10 11:04:39;;;;;;;24.25;14.55;;;18.40;69.10;;;;;;4959668;28;20122;-64
2022/03/10 11:07:05;;;;;;;22.52;13.43;;;18.30;68.40;;;;;;4967353;28;20130;-63
2022/03/10 11:09:32;;;;;;;22.42;14.93;;;17.80;70.20;;;;;;4969229;28;20046;-62
2022/03/10 11:11:58;;;;;;;22.63;14.63;;;17.20;71.30;;;;;;4951952;28;20074;-62
2022/03/10 11:14:24;;;;;;;24.60;15.52;;;16.70;71.70;;;;;;4970802;28;20070;-62
2022/03/10 11:16:52;;;;;;;23.30;14.55;;;16.60;73.20;;;;;;4974287;28;20091;-62
2022/03/10 11:19:25;;;;;;;23.77;14.88;;;16.70;72.60;;;;;;5052275;28;20120;-62
2022/03/10 11:22:28;;;;;;;23.52;14.75;;;16.20;74.80;;;;;;4979755;28;20035;-62
2022/03/10 11:25:00;;;;;;;25.73;16.08;;;15.80;74.70;;;;;;4947903;29;20043;-62
2022/03/10 11:27:35;;;;;;;24.42;15.68;;;15.90;73.70;;;;;;4950199;29;20054;-62
2022/03/10 11:30:03;;;;;;;26.38;16.90;;;15.80;75.10;;;;;;4964903;28;20443;-62
2022/03/10 11:32:30;;;;;;;26.17;16.58;;;15.60;74.80;;;;;;4952897;28;20477;-62
2022/03/10 11:34:58;;;;;;;28.13;16.77;;;15.30;75.50;;;;;;4953298;28;20039;-62
2022/03/10 11:37:40;;;;;;;28.10;16.25;;;15.30;75.40;;;;;;4970326;28;20377;-62
2022/03/10 11:40:09;;;;;;;25.25;16.27;;;15.60;75.80;;;;;;4970603;28;20047;-62
2022/03/10 11:42:35;;;;;;;26.05;16.05;;;15.20;75.50;;;;;;5031878;28;20049;-62
2022/03/10 11:45:20;;;;;;;28.63;15.40;;;15.10;76.20;;;;;;4999896;28;20100;-61
2022/03/10 11:47:47;;;;;;;;;;;15.00;75.60;;;;;;4968127;28;20463;-63
2022/03/10 11:50:24;;;;;;;24.05;14.43;;;15.10;77.70;;;;;;5034129;28;20024;-63
2022/03/10 11:52:59;;;;;;;30.83;17.38;;;15.20;74.80;;;;;;4955389;28;20054;-63
2022/03/10 11:55:48;;;;;;;29.42;15.57;;;15.20;74.00;;;;;;4956679;28;20042;-60
2022/03/10 11:58:14;;;;;;;26.13;16.63;;;15.10;75.00;;;;;;4944340;28;20052;-62
2022/03/10 12:00:49;;;;;;;28.40;16.92;;;15.40;75.60;;;;;;4944416;28;20031;-63
2022/03/10 12:03:24;;;;;;;24.83;16.48;;;15.00;74.60;;;;;;4967070;28;20038;-62
2022/03/10 12:05:55;;;;;;;26.77;16.17;;;15.10;75.50;;;;;;4967240;28;20104;-62
2022/03/10 12:08:26;;;;;;;34.08;17.17;;;15.10;75.90;;;;;;4966999;28;20127;-62
2022/03/10 12:10:52;;;;;;;30.77;16.25;;;15.30;75.90;;;;;;4964729;28;20385;-62
2022/03/10 12:13:37;;;;;;;28.55;17.05;;;15.30;76.00;;;;;;4967308;28;20051;-62
2022/03/10 12:16:26;;;;;;;32.20;17.40;;;15.10;75.70;;;;;;4968557;28;20508;-63
2022/03/10 12:18:52;;;;;;;28.55;16.70;;;15.10;76.20;;;;;;4965734;28;20073;-62
2022/03/10 12:21:23;;;;;;;28.48;15.70;;;15.00;76.00;;;;;;4968685;28;20830;-62
2022/03/10 12:23:57;;;;;;;28.98;17.25;;;15.00;75.90;;;;;;4948341;28;20046;-63
2022/03/10 12:26:36;;;;;;;26.92;15.68;;;15.20;76.50;;;;;;4951321;28;20379;-63
2022/03/10 12:29:05;;;;;;;24.13;13.68;;;15.20;75.00;;;;;;4948691;28;20043;-63
2022/03/10 12:31:35;;;;;;;26.10;15.77;;;15.20;76.30;;;;;;4968710;28;20074;-63
2022/03/10 12:34:06;;;;;;;24.20;15.45;;;15.00;77.90;;;;;;4966259;28;20039;-63
2022/03/10 12:36:57;;;;;;;26.83;15.07;;;15.10;77.50;;;;;;4945788;28;20397;-62
2022/03/10 12:39:25;;;;;;;30.85;16.67;;;15.50;76.70;;;;;;4947296;28;20054;-64
2022/03/10 12:41:54;;;;;;;22.67;14.98;;;15.50;76.80;;;;;;4959659;28;20485;-63
2022/03/10 12:44:24;;;;;;;23.48;14.60;;;15.40;76.50;;;;;;4963854;28;20404;-63
2022/03/10 12:46:52;;;;;;;28.65;15.43;;;15.50;76.20;;;;;;4948189;28;20124;-63
2022/03/10 12:49:39;;;;;;;29.00;14.80;;;15.60;76.10;;;;;;4968098;28;20062;-64